Time;durP1;ratioP1;P1;durP2;ratioP2;P2;SDS_P1;SDS_P2;PMS_P1;PMS_P2;Temp;Humidity;BMP_temperature;BMP_pressure;BME280_temperature;BME280_humidity;BME280_pressure;Samples;Min_cycle;Max_cycle;Signal;HPM_P1;HPM_P2
2022/07/02 00:01:51;;;;;;;5.03;2.15;;;;;;;18.54;92.96;100853.19;3701367;78;98822;-89
2022/07/02 00:06:53;;;;;;;6.53;1.90;;;;;;;18.53;91.96;100863.53;3698863;78;98841;-87
2022/07/02 00:11:58;;;;;;;4.35;1.82;;;;;;;18.45;92.47;100850.12;3716468;79;98849;-85
2022/07/02 00:17:00;;;;;;;7.58;1.90;;;;;;;18.43;92.17;100833.81;3720903;76;98537;-89
2022/07/02 00:22:02;;;;;;;4.78;1.60;;;;;;;18.36;91.68;100850.64;3741609;77;98488;-85
2022/07/02 00:27:05;;;;;;;2.83;1.17;;;;;;;18.25;92.27;100869.47;3733754;78;98526;-86
2022/07/02 00:32:07;;;;;;;3.65;1.17;;;;;;;18.24;91.82;100860.13;3736146;77;97906;-86
2022/07/02 00:37:10;;;;;;;2.55;0.93;;;;;;;18.27;92.10;100864.29;3716174;77;98977;-88
2022/07/02 00:42:11;;;;;;;1.15;0.90;;;;;;;18.38;92.06;100876.11;3724761;77;97875;-87
2022/07/02 00:47:13;;;;;;;6.60;1.42;;;;;;;18.36;91.34;100886.87;3728845;77;98903;-85
2022/07/02 00:52:14;;;;;;;2.10;0.80;;;;;;;18.28;90.86;100877.01;3730724;77;32393;-86
2022/07/02 00:57:16;;;;;;;3.67;0.88;;;;;;;18.26;90.55;100873.06;3742225;78;98805;-87
2022/07/02 01:02:22;;;;;;;2.70;1.27;;;;;;;18.21;90.51;100881.26;3726184;77;99199;-84
2022/07/02 01:07:25;;;;;;;1.72;0.90;;;;;;;18.14;90.52;100881.36;3731831;77;98835;-85
2022/07/02 01:12:27;;;;;;;2.17;1.00;;;;;;;18.19;90.80;100877.30;3747918;77;99153;-85
2022/07/02 01:17:28;;;;;;;2.40;0.88;;;;;;;18.19;90.40;100884.27;3714007;77;98932;-86
2022/07/02 01:22:38;;;;;;;1.07;0.80;;;;;;;18.14;90.58;100890.34;3727913;78;31914;-86
2022/07/02 01:27:39;;;;;;;5.92;1.57;;;;;;;18.17;90.32;100913.97;3726521;77;98958;-85
2022/07/02 01:32:40;;;;;;;2.47;0.50;;;;;;;18.06;89.63;100913.30;3713793;78;98548;-85
2022/07/02 01:37:42;;;;;;;1.52;0.60;;;;;;;18.05;89.97;100919.28;3715294;78;98806;-84
2022/07/02 01:42:43;;;;;;;1.92;0.53;;;;;;;18.06;89.51;100923.64;3729173;78;98811;-89
2022/07/02 01:47:44;;;;;;;0.70;0.50;;;;;;;17.96;89.01;100921.17;3719582;79;98903;-87
2022/07/02 01:52:45;;;;;;;2.20;0.55;;;;;;;17.87;89.21;100934.02;3716715;77;31210;-87
2022/07/02 01:57:46;;;;;;;1.95;0.68;;;;;;;17.88;89.98;100955.86;3724142;77;98894;-89
2022/07/02 02:02:47;;;;;;;1.55;0.62;;;;;;;17.93;89.95;100961.59;3731759;77;98646;-86
2022/07/02 02:07:48;;;;;;;2.52;0.62;;;;;;;17.94;89.98;100970.91;3725388;77;99028;-89
2022/07/02 02:12:49;;;;;;;1.42;0.45;;;;;;;17.87;89.66;100979.34;3702307;77;98049;-89
2022/07/02 02:17:50;;;;;;;4.95;0.80;;;;;;;17.84;89.96;100989.94;3727252;77;98806;-89
2022/07/02 02:22:51;;;;;;;0.47;0.45;;;;;;;17.82;89.77;100992.32;3740815;78;26711;-89
2022/07/02 02:27:52;;;;;;;2.05;0.60;;;;;;;17.83;90.04;100995.91;3724474;77;98701;-89
2022/07/02 02:32:53;;;;;;;0.78;0.60;;;;;;;17.67;90.03;101005.40;3739541;77;99126;-89
2022/07/02 02:37:54;;;;;;;4.15;1.67;;;;;;;17.72;90.51;101009.13;3727617;77;98803;-88
2022/07/02 02:42:55;;;;;;;1.57;0.70;;;;;;;17.78;90.69;101016.64;3734562;78;98823;-88
2022/07/02 02:47:56;;;;;;;3.77;0.90;;;;;;;17.80;90.45;101011.45;3700660;78;99167;-88
2022/07/02 02:52:57;;;;;;;1.53;0.60;;;;;;;17.85;90.50;101025.52;3735738;77;25791;-88
2022/07/02 02:57:59;;;;;;;2.10;0.80;;;;;;;17.86;90.46;101035.44;3728777;77;99086;-88
2022/07/02 03:03:00;;;;;;;3.13;0.60;;;;;;;17.83;90.40;101039.84;3728330;77;98610;-86
2022/07/02 03:08:01;;;;;;;1.77;0.87;;;;;;;17.79;90.73;101034.92;3714568;77;98645;-88
2022/07/02 03:13:02;;;;;;;1.80;1.00;;;;;;;17.77;90.42;101044.27;3726285;77;99172;-89
2022/07/02 03:18:03;;;;;;;3.57;1.23;;;;;;;17.77;90.20;101047.67;3731880;76;98611;-89
2022/07/02 03:23:05;;;;;;;2.25;0.85;;;;;;;17.70;90.22;101051.89;3741723;78;99027;-87
2022/07/02 03:28:06;;;;;;;3.03;1.10;;;;;;;17.68;90.09;101049.53;3725301;77;98425;-87
2022/07/02 03:33:07;;;;;;;2.77;1.23;;;;;;;17.69;90.01;101052.51;3745987;77;97849;-88
2022/07/02 03:38:08;;;;;;;6.60;0.97;;;;;;;17.70;89.80;101056.87;3740838;77;98723;-88
2022/07/02 03:43:09;;;;;;;2.00;1.13;;;;;;;17.73;89.94;101056.65;3739518;77;98817;-87
2022/07/02 03:48:10;;;;;;;2.07;1.20;;;;;;;17.76;90.22;101055.84;3722112;77;98777;-87
2022/07/02 03:53:11;;;;;;;2.83;1.47;;;;;;;17.73;89.82;101067.20;3740772;77;99289;-88
2022/07/02 03:58:12;;;;;;;5.47;1.47;;;;;;;17.69;89.82;101080.94;3728131;77;98887;-88
2022/07/02 04:03:13;;;;;;;3.77;1.80;;;;;;;17.66;89.63;101092.28;3737467;77;98199;-88
2022/07/02 04:08:15;;;;;;;5.12;1.98;;;;;;;17.68;89.70;101105.80;3738244;77;99149;-89
2022/07/02 04:13:16;;;;;;;5.55;2.30;;;;;;;17.63;89.40;101107.04;3741789;77;97909;-87
2022/07/02 04:18:18;;;;;;;4.10;1.80;;;;;;;17.59;89.55;101109.05;3723040;78;98948;-87
2022/07/02 04:23:19;;;;;;;7.95;3.05;;;;;;;17.54;88.88;101122.62;3729792;78;98592;-88
2022/07/02 04:28:20;;;;;;;6.27;2.40;;;;;;;17.38;89.49;101131.44;3685123;79;98491;-87
2022/07/02 04:33:21;;;;;;;7.83;2.00;;;;;;;17.38;90.17;101128.66;3704945;78;98565;-87
2022/07/02 04:38:22;;;;;;;4.42;1.60;;;;;;;17.35;89.57;101143.36;3721174;77;98797;-87
2022/07/02 04:43:24;;;;;;;4.10;1.77;;;;;;;17.29;89.45;101147.77;3700208;77;97929;-88
2022/07/02 04:48:25;;;;;;;4.07;1.70;;;;;;;17.36;89.80;101153.29;3725936;77;99020;-88
2022/07/02 04:53:26;;;;;;;4.30;1.60;;;;;;;17.38;89.59;101155.67;3717791;78;99188;-90
2022/07/02 04:58:27;;;;;;;4.83;1.47;;;;;;;17.38;89.11;101167.61;3721361;77;98486;-92
2022/07/02 05:03:28;;;;;;;6.58;1.80;;;;;;;17.44;89.37;101178.52;3734924;77;98629;-88
2022/07/02 05:08:29;;;;;;;5.47;1.57;;;;;;;17.43;88.61;101183.89;3712857;77;98867;-90
2022/07/02 05:13:30;;;;;;;3.40;1.33;;;;;;;17.55;88.87;101184.04;3693714;78;98766;-89
2022/07/02 05:18:31;;;;;;;4.83;1.50;;;;;;;17.62;88.29;101188.98;3682281;78;98702;-87
2022/07/02 05:23:32;;;;;;;3.27;1.40;;;;;;;17.66;87.88;101200.09;3698973;79;99263;-89
2022/07/02 05:28:34;;;;;;;4.30;1.43;;;;;;;17.75;87.75;101198.44;3703307;79;98485;-88
2022/07/02 05:33:35;;;;;;;4.17;1.50;;;;;;;17.87;87.50;101198.58;3659573;77;98663;-87
2022/07/02 05:38:36;;;;;;;4.87;1.97;;;;;;;18.10;87.50;101196.80;3664990;79;98768;-89
2022/07/02 05:43:38;;;;;;;3.47;1.30;;;;;;;18.34;87.18;101192.27;3649170;79;97960;-86
2022/07/02 05:48:41;;;;;;;3.40;1.30;;;;;;;18.64;86.86;101200.15;3676806;79;98652;-88
2022/07/02 05:53:42;;;;;;;4.57;1.40;;;;;;;18.85;85.72;101209.70;3654320;79;98727;-87
2022/07/02 05:58:43;;;;;;;3.90;1.60;;;;;;;19.04;85.08;101218.08;3647133;78;98582;-86
2022/07/02 06:03:44;;;;;;;5.10;1.73;;;;;;;19.11;83.67;101229.16;3641123;79;98710;-87
2022/07/02 06:08:45;;;;;;;3.07;1.60;;;;;;;19.18;83.31;101222.12;3690337;78;98814;-85
2022/07/02 06:13:46;;;;;;;3.83;1.50;;;;;;;19.20;82.30;101232.26;3733724;77;98727;-85
2022/07/02 06:18:47;;;;;;;4.13;1.60;;;;;;;19.17;82.05;101242.84;3737618;77;99051;-87
2022/07/02 06:23:48;;;;;;;6.42;1.80;;;;;;;19.33;82.40;101250.87;3744058;77;99037;-85
2022/07/02 06:28:49;;;;;;;6.78;1.70;;;;;;;19.62;81.87;101238.77;3734748;77;98811;-85
2022/07/02 06:33:50;;;;;;;3.92;1.30;;;;;;;20.02;81.38;101255.96;3748841;77;98684;-86
2022/07/02 06:38:52;;;;;;;2.98;1.20;;;;;;;20.62;81.37;101248.27;3740809;78;99192;-86
2022/07/02 06:43:53;;;;;;;2.83;1.57;;;;;;;21.29;79.59;101245.04;3741103;77;98859;-88
2022/07/02 06:48:54;;;;;;;1.42;0.90;;;;;;;21.93;78.45;101247.31;3731348;77;98988;-86
2022/07/02 06:54:00;;;;;;;2.90;1.30;;;;;;;22.68;76.88;101254.33;3748872;77;98438;-89
2022/07/02 06:58:58;;;;;;;3.02;1.00;;;;;;;23.33;73.90;101267.05;3754370;77;98865;-87
2022/07/02 07:03:59;;;;;;;5.75;1.55;;;;;;;23.96;72.25;101273.68;3753020;77;97670;-85
2022/07/02 07:09:01;;;;;;;3.08;1.07;;;;;;;24.49;70.23;101280.45;3758683;77;99101;-86
2022/07/02 07:14:02;;;;;;;3.12;1.20;;;;;;;25.00;68.30;101274.30;3770863;77;98954;-87
2022/07/02 07:19:07;;;;;;;2.98;1.12;;;;;;;25.46;64.90;101279.73;3718001;77;99296;-87
2022/07/02 07:24:09;;;;;;;3.60;1.40;;;;;;;26.12;63.58;101272.19;3673110;79;99303;-86
2022/07/02 07:29:10;;;;;;;4.62;1.20;;;;;;;26.12;63.58;101272.19;3696765;78;99160;-88
2022/07/02 07:34:12;;;;;;;4.37;1.57;;;;;;;26.66;62.25;101303.50;3697892;78;31613;-89
2022/07/02 07:39:13;;;;;;;5.95;1.42;;;;;;;26.87;60.66;101306.85;3705440;78;99221;-88
2022/07/02 07:44:14;;;;;;;3.02;1.30;;;;;;;26.76;59.15;101310.10;3685271;78;99200;-89
2022/07/02 07:49:15;;;;;;;5.78;1.60;;;;;;;26.77;58.78;101322.20;3660525;80;99190;-88
2022/07/02 07:54:19;;;;;;;6.00;2.08;;;;;;;26.99;57.88;101323.68;3658552;80;98464;-89
2022/07/02 07:59:25;;;;;;;5.08;1.62;;;;;;;27.21;57.86;101320.75;3643187;79;98804;-91
2022/07/02 08:04:37;;;;;;;4.90;1.77;;;;;;;27.48;56.70;101339.14;3665517;79;25936;-90
2022/07/02 08:09:42;;;;;;;5.78;2.12;;;;;;;27.62;55.98;101334.28;3658405;77;98720;-93
2022/07/02 08:14:50;;;;;;;6.57;1.90;;;;;;;27.67;54.78;101342.91;3671262;80;98595;-87
2022/07/02 08:19:55;;;;;;;6.35;1.52;;;;;;;27.82;54.41;101352.98;3601457;79;98791;-89
2022/07/02 08:25:12;;;;;;;3.60;1.50;;;;;;;28.10;54.15;101357.34;3697914;80;26173;-89
2022/07/02 08:30:23;;;;;;;6.65;2.27;;;;;;;28.77;53.12;101355.72;3645197;79;99439;-88
2022/07/02 08:35:27;;;;;;;6.10;2.42;;;;;;;29.04;50.95;101357.02;3667236;80;97995;-89
2022/07/02 08:40:37;;;;;;;4.83;2.07;;;;;;;28.52;50.37;101366.08;3690206;79;98259;-89
2022/07/02 08:45:37;;;;;;;9.08;2.33;;;;;;;28.75;50.22;101370.21;3692755;79;98727;-85
2022/07/02 08:50:40;;;;;;;6.28;2.60;;;;;;;28.76;48.37;101368.33;3681087;78;98729;-87
2022/07/02 08:55:44;;;;;;;5.37;1.92;;;;;;;28.61;48.59;101358.17;3688431;80;98802;-91
2022/07/02 09:00:53;;;;;;;8.53;2.20;;;;;;;28.72;48.90;101366.94;3685327;77;98457;-90
2022/07/02 09:05:51;;;;;;;6.05;2.52;;;;;;;29.33;49.18;101376.22;3701649;78;98779;-90
2022/07/02 09:10:55;;;;;;;4.35;1.55;;;;;;;30.04;48.67;101377.70;3689295;78;97735;-91
2022/07/02 09:15:56;;;;;;;7.10;1.80;;;;;;;30.67;47.48;101379.87;3713154;78;98698;-89
2022/07/02 09:20:57;;;;;;;6.20;2.00;;;;;;;31.32;45.57;101370.77;3658456;78;98821;-90
2022/07/02 09:26:03;;;;;;;5.50;1.70;;;;;;;31.92;45.64;101366.47;3648914;79;97962;-90
2022/07/02 09:31:05;;;;;;;4.73;1.90;;;;;;;32.51;44.50;101378.19;3667564;79;98783;-88
2022/07/02 09:36:12;;;;;;;5.17;1.80;;;;;;;33.04;43.54;101378.35;3664680;79;99199;-87
2022/07/02 09:41:20;;;;;;;3.92;1.67;;;;;;;32.24;41.10;101372.36;3670487;79;98646;-89
2022/07/02 09:46:22;;;;;;;4.55;1.67;;;;;;;30.89;39.94;101380.22;3668832;79;26594;-88
2022/07/02 09:51:23;;;;;;;5.08;1.52;;;;;;;30.16;41.64;101383.76;3662981;79;98636;-86
2022/07/02 09:56:24;;;;;;;2.02;1.20;;;;;;;29.83;43.69;101376.63;3674697;79;99336;-89
2022/07/02 10:01:25;;;;;;;5.95;1.67;;;;;;;29.55;41.10;101380.97;3681455;79;99034;-85
2022/07/02 10:06:26;;;;;;;3.37;1.27;;;;;;;29.91;43.98;101376.41;3675263;79;98749;-86
2022/07/02 10:11:29;;;;;;;4.70;1.60;;;;;;;30.88;44.04;101375.81;3646779;79;99148;-87
2022/07/02 10:16:30;;;;;;;2.55;1.20;;;;;;;31.88;41.58;101375.87;3657100;79;25820;-89
2022/07/02 10:21:32;;;;;;;5.28;1.62;;;;;;;32.37;41.80;101373.42;3687633;78;98857;-87
2022/07/02 10:26:33;;;;;;;5.22;1.32;;;;;;;32.55;40.18;101385.87;3715737;78;99301;-88
2022/07/02 10:31:39;;;;;;;5.00;1.57;;;;;;;32.87;40.90;101386.81;3739225;78;98879;-85
2022/07/02 10:36:41;;;;;;;3.87;1.52;;;;;;;33.24;40.07;101375.36;3724531;78;98977;-84
2022/07/02 10:41:43;;;;;;;6.22;1.52;;;;;;;33.55;38.54;101376.67;3721433;78;98780;-85
2022/07/02 10:46:47;;;;;;;2.62;1.30;;;;;;;33.61;37.84;101372.56;3678498;78;98955;-90
2022/07/02 10:51:51;;;;;;;;;;;;;;;33.67;38.28;101369.73;3702865;78;98774;-90
2022/07/02 10:56:55;;;;;;;4.95;1.50;;;;;;;34.36;37.54;101367.44;3713429;78;84996;-86
2022/07/02 11:02:11;;;;;;;3.47;1.40;;;;;;;34.70;37.23;101364.05;3703961;78;98812;-88
2022/07/02 11:07:13;;;;;;;6.47;1.80;;;;;;;34.17;37.65;101366.36;3673415;79;99220;-89
2022/07/02 11:12:19;;;;;;;2.83;1.60;;;;;;;34.34;37.95;101371.47;3667710;79;99166;-87
2022/07/02 11:17:23;;;;;;;3.95;1.57;;;;;;;34.20;37.22;101356.10;3681824;78;98723;-81
2022/07/02 11:22:28;;;;;;;;;;;;;;;33.53;35.77;101350.09;3687285;78;25778;-82
2022/07/02 11:27:29;;;;;;;5.87;1.98;;;;;;;32.16;35.74;101348.48;3673842;78;85026;-84
2022/07/02 11:32:37;;;;;;;4.47;1.75;;;;;;;31.23;37.91;101333.16;3687121;78;98754;-82
2022/07/02 11:37:45;;;;;;;7.42;1.90;;;;;;;30.74;38.60;101332.56;3687455;77;98853;-85
2022/07/02 11:42:46;;;;;;;3.12;1.42;;;;;;;30.98;38.62;101321.02;3699646;78;98772;-82
2022/07/02 11:47:49;;;;;;;3.22;1.67;;;;;;;31.53;38.30;101326.80;3685188;78;99165;-84
2022/07/02 11:52:54;;;;;;;5.90;1.90;;;;;;;32.45;39.26;101325.43;3704481;78;25979;-88
2022/07/02 11:57:54;;;;;;;8.40;2.00;;;;;;;33.25;38.60;101323.49;3687058;78;99134;-89
2022/07/02 12:02:55;;;;;;;4.70;1.57;;;;;;;33.59;36.80;101314.41;3678749;78;98334;-85
2022/07/02 12:07:56;;;;;;;4.78;1.95;;;;;;;33.60;36.59;101315.33;3673607;78;98846;-87
2022/07/02 12:12:57;;;;;;;3.08;1.85;;;;;;;34.00;37.06;101317.00;3689759;78;99274;-88
2022/07/02 12:17:58;;;;;;;2.92;1.77;;;;;;;34.34;36.57;101318.59;3693929;78;98899;-90
2022/07/02 12:22:59;;;;;;;3.58;1.35;;;;;;;34.53;36.76;101319.60;3686175;78;25836;-88
2022/07/02 12:29:53;;;;;;;4.00;1.80;;;;;;;34.53;36.47;101316.10;3610175;79;98987;-90
2022/07/02 12:33:06;;;;;;;5.03;1.70;;;;;;;34.17;35.90;101321.41;3685660;79;99077;-87
2022/07/02 12:38:07;;;;;;;6.62;1.85;;;;;;;34.11;36.33;101316.34;3679873;79;99481;-85
2022/07/02 12:43:08;;;;;;;5.55;1.60;;;;;;;33.75;35.70;101310.17;3688349;78;98775;-86
2022/07/02 12:48:15;;;;;;;3.67;1.40;;;;;;;33.57;35.47;101314.91;3655788;79;99053;-87
2022/07/02 12:53:18;;;;;;;3.87;1.50;;;;;;;33.35;35.50;101311.98;3676713;79;25958;-88
2022/07/02 12:58:19;;;;;;;3.80;1.87;;;;;;;33.01;36.04;101313.11;3665632;79;98850;-87
2022/07/02 13:03:23;;;;;;;2.47;1.35;;;;;;;32.91;35.82;101310.33;3679216;78;98933;-88
2022/07/02 13:08:27;;;;;;;2.17;1.40;;;;;;;32.45;35.94;101298.36;3659886;79;99146;-88
2022/07/02 13:13:28;;;;;;;7.22;1.95;;;;;;;32.21;35.98;101303.56;3676062;79;99293;-88
2022/07/02 13:18:29;;;;;;;4.92;1.40;;;;;;;31.91;37.02;101302.27;3676581;79;99081;-86
2022/07/02 13:23:30;;;;;;;4.95;1.65;;;;;;;31.79;37.66;101301.23;3705937;78;98795;-86
2022/07/02 13:28:31;;;;;;;2.90;1.47;;;;;;;31.66;37.81;101297.31;3685060;78;99004;-86
2022/07/02 13:33:32;;;;;;;2.50;1.32;;;;;;;31.40;37.42;101292.26;3687512;78;98694;-86
2022/07/02 13:38:33;;;;;;;3.80;1.70;;;;;;;31.18;37.61;101277.74;3697000;77;98985;-87
2022/07/02 13:43:34;;;;;;;9.03;4.83;;;;;;;30.78;37.61;101286.90;3698486;78;98935;-86
2022/07/02 13:48:35;;;;;;;4.30;2.05;;;;;;;30.08;38.84;101294.50;3678766;78;99064;-88
2022/07/02 13:53:37;;;;;;;3.02;1.80;;;;;;;29.77;38.24;101291.39;3701689;78;99422;-87
2022/07/02 13:58:38;;;;;;;3.22;1.65;;;;;;;29.46;38.17;101289.59;3691700;78;99129;-87
2022/07/02 14:03:39;;;;;;;5.53;1.98;;;;;;;29.53;38.95;101294.13;3712491;77;98994;-88
2022/07/02 14:08:40;;;;;;;4.72;1.90;;;;;;;29.52;39.52;101291.11;3684093;78;98899;-88
2022/07/02 14:13:41;;;;;;;5.05;1.50;;;;;;;29.57;39.64;101300.39;3699372;78;98787;-88
2022/07/02 14:18:43;;;;;;;3.62;1.70;;;;;;;29.59;39.61;101291.55;3688633;78;99166;-87
2022/07/02 14:23:44;;;;;;;2.50;1.60;;;;;;;29.62;39.59;101286.95;3684900;78;99625;-87
2022/07/02 14:28:45;;;;;;;6.22;1.90;;;;;;;29.64;39.78;101287.27;3694695;78;98692;-87
2022/07/02 14:33:46;;;;;;;2.77;1.50;;;;;;;29.61;39.91;101281.93;3698582;78;98647;-88
2022/07/02 14:38:48;;;;;;;4.30;1.80;;;;;;;29.62;39.92;101278.44;3696446;78;99043;-88
2022/07/02 14:43:50;;;;;;;3.20;1.72;;;;;;;29.59;39.38;101274.52;3697367;78;99139;-87
2022/07/02 14:48:51;;;;;;;5.92;1.85;;;;;;;29.67;39.93;101262.16;3684857;78;98932;-87
2022/07/02 14:53:52;;;;;;;3.67;1.50;;;;;;;29.61;39.13;101255.60;3689212;79;98935;-86
2022/07/02 14:58:53;;;;;;;2.65;1.55;;;;;;;29.64;39.44;101255.41;3689605;78;99012;-87
2022/07/02 15:03:54;;;;;;;2.90;1.65;;;;;;;29.56;37.59;101254.23;3681966;78;98968;-85
2022/07/02 15:08:55;;;;;;;3.40;1.50;;;;;;;29.51;37.52;101257.72;3682015;78;99008;-86
2022/07/02 15:19:16;;;;;;;4.55;1.70;;;;;;;29.43;36.60;101252.92;3682223;80;98992;-85
2022/07/02 15:24:23;;;;;;;4.35;1.70;;;;;;;29.09;35.35;101257.13;3694406;78;98881;-87
2022/07/02 15:29:26;;;;;;;3.98;1.57;;;;;;;28.85;36.80;101253.52;3685580;78;99167;-86
2022/07/02 15:34:27;;;;;;;6.80;2.42;;;;;;;28.60;38.35;101243.30;3682619;78;26202;-85
2022/07/02 15:39:29;;;;;;;4.10;1.90;;;;;;;28.52;37.47;101239.23;3679516;78;98912;-85
2022/07/02 15:44:30;;;;;;;3.83;2.20;;;;;;;28.44;38.46;101228.12;3682829;78;99157;-85
2022/07/02 15:49:34;;;;;;;3.72;1.67;;;;;;;28.34;39.39;101229.40;3673326;78;98950;-86
2022/07/02 15:55:04;;;;;;;5.60;2.10;;;;;;;28.20;39.77;101230.88;3691023;78;98970;-85
2022/07/02 16:00:07;;;;;;;4.45;1.90;;;;;;;27.93;39.88;101230.98;3689416;78;98834;-81
2022/07/02 16:05:08;;;;;;;6.53;2.22;;;;;;;27.43;40.65;101226.05;3708292;78;26058;-85
2022/07/02 16:10:10;;;;;;;4.35;2.25;;;;;;;27.01;41.15;101224.29;3665477;79;98643;-84
2022/07/02 16:15:12;;;;;;;6.75;2.25;;;;;;;26.59;41.70;101223.31;3699661;78;99008;-82
2022/07/02 16:20:15;;;;;;;6.35;2.27;;;;;;;26.41;42.86;101218.38;3661495;78;98784;-83
2022/07/02 16:25:16;;;;;;;3.90;1.92;;;;;;;26.20;43.52;101208.59;3675094;78;99207;-82
2022/07/02 16:30:17;;;;;;;5.53;2.15;;;;;;;25.94;44.29;101210.81;3689089;79;99218;-83
2022/07/02 16:35:27;;;;;;;7.00;2.30;;;;;;;25.71;44.76;101202.08;3699226;78;34784;-84
2022/07/02 16:40:30;;;;;;;4.80;2.47;;;;;;;25.47;45.42;101201.77;3685522;78;98514;-83
2022/07/02 16:45:33;;;;;;;4.83;2.45;;;;;;;25.36;45.81;101201.99;3673971;80;98687;-84
2022/07/02 16:50:34;;;;;;;6.95;2.27;;;;;;;25.19;46.36;101206.23;3694846;78;99067;-84
2022/07/02 16:55:35;;;;;;;6.90;1.95;;;;;;;24.92;46.10;101214.45;3689074;78;98866;-83
2022/07/02 17:00:36;;;;;;;6.28;2.58;;;;;;;24.65;47.14;101213.58;3686870;78;98877;-84
2022/07/02 17:05:37;;;;;;;4.35;2.30;;;;;;;24.41;48.05;101214.39;3697530;78;99189;-84
2022/07/02 17:16:00;;;;;;;6.62;3.00;;;;;;;24.00;50.05;101206.87;3698657;79;99015;-84
2022/07/02 17:21:02;;;;;;;6.72;2.95;;;;;;;23.83;50.78;101196.14;3688036;78;98611;-84
2022/07/02 17:26:03;;;;;;;7.75;3.20;;;;;;;23.62;51.67;101198.98;3689320;78;98784;-83
2022/07/02 17:31:04;;;;;;;8.28;3.10;;;;;;;23.43;52.78;101183.72;3678544;77;98837;-85
2022/07/02 17:36:05;;;;;;;8.93;3.30;;;;;;;23.27;53.33;101184.56;3686178;78;98782;-84
2022/07/02 17:41:09;;;;;;;8.73;3.10;;;;;;;23.14;53.87;101178.09;3678414;78;98636;-83
2022/07/02 17:46:12;;;;;;;10.10;2.95;;;;;;;23.02;54.00;101175.23;3683864;78;98717;-84
2022/07/02 17:51:13;;;;;;;6.58;2.98;;;;;;;22.89;54.15;101167.39;3668878;78;98935;-83
2022/07/02 17:56:14;;;;;;;5.62;2.25;;;;;;;22.80;54.77;101168.03;3690341;79;99248;-83
2022/07/02 18:01:15;;;;;;;6.42;2.10;;;;;;;22.74;55.23;101160.59;3682544;78;98805;-84
2022/07/02 18:06:16;;;;;;;5.30;2.15;;;;;;;22.64;55.78;101155.44;3664813;78;99272;-82
2022/07/02 18:11:19;;;;;;;4.20;2.10;;;;;;;22.57;55.15;101159.05;3685031;78;98545;-83
2022/07/02 18:16:21;;;;;;;4.47;2.47;;;;;;;22.46;56.39;101150.89;3678590;78;98547;-83
2022/07/02 18:21:22;;;;;;;5.20;2.20;;;;;;;22.35;57.12;101143.33;3685109;78;98977;-84
2022/07/02 18:26:24;;;;;;;5.42;2.00;;;;;;;22.24;58.33;101144.84;3708538;78;98893;-83
2022/07/02 18:31:25;;;;;;;3.27;2.15;;;;;;;22.11;58.67;101138.34;3683778;78;98962;-84
2022/07/02 18:36:26;;;;;;;5.30;2.00;;;;;;;22.00;59.83;101144.83;3689847;78;98998;-83
2022/07/02 18:41:28;;;;;;;3.65;2.30;;;;;;;21.88;60.49;101153.94;3686543;78;99199;-85
2022/07/02 18:46:29;;;;;;;6.55;2.30;;;;;;;21.77;61.09;101150.00;3693856;78;34904;-85
2022/07/02 18:51:31;;;;;;;5.45;2.27;;;;;;;21.65;61.69;101145.05;3690531;79;98692;-85
2022/07/02 18:56:32;;;;;;;3.98;2.40;;;;;;;21.55;62.43;101154.47;3695202;78;98865;-85
2022/07/02 19:01:33;;;;;;;6.35;3.00;;;;;;;21.44;63.13;101146.11;3700413;78;98986;-84
2022/07/02 19:06:35;;;;;;;5.67;3.20;;;;;;;21.33;63.86;101151.95;3681066;78;99242;-84
2022/07/02 19:11:36;;;;;;;7.83;4.17;;;;;;;21.24;64.20;101159.34;3680561;78;98892;-84
2022/07/02 19:16:38;;;;;;;6.58;3.20;;;;;;;21.15;64.51;101160.55;3690660;78;98771;-84
2022/07/02 19:21:40;;;;;;;11.33;7.37;;;;;;;21.05;65.22;101179.14;3719551;78;98707;-85
2022/07/02 19:32:02;;;;;;;21.85;16.23;;;;;;;20.83;66.07;101180.73;3639323;79;99584;-85
2022/07/02 19:37:04;;;;;;;19.23;12.20;;;;;;;20.72;66.47;101187.73;3653815;78;99190;-84
2022/07/02 19:42:05;;;;;;;13.88;7.78;;;;;;;20.63;66.72;101186.90;3659535;79;99187;-84
2022/07/02 19:47:07;;;;;;;11.25;5.97;;;;;;;20.52;67.16;101196.08;3655451;79;99048;-84
2022/07/02 19:52:08;;;;;;;12.53;6.83;;;;;;;20.42;67.60;101204.04;3647614;79;98802;-85
2022/07/02 19:57:09;;;;;;;13.35;6.42;;;;;;;20.32;68.17;101202.84;3676861;79;98986;-86
2022/07/02 20:02:10;;;;;;;27.00;14.87;;;;;;;20.22;68.20;101204.56;3662173;79;99029;-86
2022/07/02 20:07:11;;;;;;;23.65;14.10;;;;;;;20.12;68.89;101208.31;3659027;79;99939;-85
2022/07/02 20:12:13;;;;;;;17.40;9.98;;;;;;;20.04;69.25;101208.81;3667125;79;99186;-86
2022/07/02 20:17:25;;;;;;;14.55;5.90;;;;;;;19.94;69.47;101216.15;3656831;79;98947;-85
2022/07/02 20:22:26;;;;;;;8.80;4.00;;;;;;;19.84;69.73;101208.70;3685745;78;35020;-85
2022/07/02 20:27:27;;;;;;;6.42;3.55;;;;;;;19.76;70.42;101208.64;3705526;78;98626;-84
2022/07/02 20:32:29;;;;;;;7.28;3.67;;;;;;;19.69;70.75;101210.73;3712758;78;98918;-85
2022/07/02 20:37:31;;;;;;;9.33;3.25;;;;;;;19.60;71.44;101203.46;3690458;78;99027;-83
2022/07/02 20:42:32;;;;;;;7.28;3.33;;;;;;;19.54;71.54;101205.94;3688635;78;98949;-85
2022/07/02 20:47:37;;;;;;;6.35;2.83;;;;;;;19.49;71.69;101204.20;3683318;78;99236;-85
2022/07/02 20:52:40;;;;;;;8.08;2.95;;;;;;;19.40;72.05;101202.55;3713741;78;34991;-85
2022/07/02 20:57:41;;;;;;;7.10;3.25;;;;;;;19.34;72.17;101207.02;3710350;78;99184;-84
2022/07/02 21:02:44;;;;;;;7.85;3.62;;;;;;;19.26;72.37;101199.92;3709049;78;99224;-85
2022/07/02 21:07:45;;;;;;;7.28;3.45;;;;;;;19.19;73.05;101202.77;3701101;78;99269;-85
2022/07/02 21:12:46;;;;;;;6.33;2.98;;;;;;;19.14;73.25;101197.64;3682100;78;99244;-87
2022/07/02 21:17:48;;;;;;;9.75;3.50;;;;;;;19.07;73.24;101198.50;3689430;78;99153;-87
2022/07/02 21:22:49;;;;;;;7.80;3.25;;;;;;;19.01;73.53;101191.03;3686691;80;34803;-87
2022/07/02 21:27:51;;;;;;;6.45;3.45;;;;;;;18.93;73.98;101192.30;3598944;80;98859;-85
2022/07/02 21:32:52;;;;;;;7.25;3.30;;;;;;;18.87;74.04;101188.38;3623847;80;99175;-84
2022/07/02 21:37:54;;;;;;;6.47;3.35;;;;;;;18.84;74.66;101197.56;3594738;80;98797;-84
2022/07/02 21:42:55;;;;;;;7.37;3.75;;;;;;;18.78;74.83;101185.28;3612354;80;99279;-85
2022/07/02 21:47:56;;;;;;;6.65;3.42;;;;;;;18.75;74.80;101186.13;3619876;79;99020;-85
2022/07/02 21:52:57;;;;;;;5.55;3.12;;;;;;;18.66;74.97;101179.64;3624677;80;34502;-86
2022/07/02 21:57:58;;;;;;;6.62;3.42;;;;;;;18.60;75.37;101181.30;3615478;80;99150;-84
2022/07/02 22:02:59;;;;;;;7.67;3.77;;;;;;;18.55;75.42;101184.52;3585554;80;99035;-84
2022/07/02 22:08:00;;;;;;;8.53;3.58;;;;;;;18.51;75.70;101178.77;3593037;80;99101;-82
2022/07/02 22:13:01;;;;;;;8.03;3.72;;;;;;;18.45;75.94;101172.87;3589069;80;99322;-82
2022/07/02 22:18:03;;;;;;;8.88;3.65;;;;;;;18.40;76.07;101177.48;3593490;78;99210;-82
2022/07/02 22:23:04;;;;;;;6.28;3.45;;;;;;;18.32;76.23;101171.77;3638110;80;33081;-84
2022/07/02 22:28:05;;;;;;;6.42;3.50;;;;;;;18.28;76.48;101168.21;3700689;78;98843;-85
2022/07/02 22:33:07;;;;;;;5.80;3.40;;;;;;;18.23;76.68;101176.20;3694881;78;97854;-84
2022/07/02 22:38:10;;;;;;;6.70;3.50;;;;;;;18.15;76.65;101167.11;3680197;78;98842;-84
2022/07/02 22:43:12;;;;;;;5.75;3.37;;;;;;;18.08;76.69;101166.37;3697749;78;98807;-84
2022/07/02 22:48:13;;;;;;;7.10;4.08;;;;;;;18.01;76.99;101162.25;3685387;78;98964;-86
2022/07/02 22:53:14;;;;;;;9.93;4.58;;;;;;;17.96;77.25;101160.70;3681391;79;33939;-85
2022/07/02 22:58:17;;;;;;;7.75;4.85;;;;;;;17.91;77.45;101163.92;3681203;80;99040;-85
2022/07/02 23:03:18;;;;;;;9.78;4.83;;;;;;;17.87;77.59;101166.55;3680894;78;99060;-84
2022/07/02 23:08:21;;;;;;;9.50;5.20;;;;;;;17.84;77.88;101165.95;3689564;79;98787;-84
2022/07/02 23:13:22;;;;;;;10.95;5.33;;;;;;;17.81;77.89;101165.37;3682531;78;98800;-84
2022/07/02 23:18:23;;;;;;;10.23;5.65;;;;;;;17.75;78.10;101173.38;3692057;78;99066;-85
2022/07/02 23:23:24;;;;;;;10.65;5.30;;;;;;;17.74;78.45;101172.38;3688719;78;99015;-85
2022/07/02 23:28:25;;;;;;;10.50;5.75;;;;;;;17.72;78.86;101167.84;3660207;80;98713;-85
2022/07/02 23:33:27;;;;;;;13.25;5.60;;;;;;;17.70;78.86;101175.19;3685221;78;98867;-85
2022/07/02 23:38:28;;;;;;;8.30;5.28;;;;;;;17.67;79.04;101175.22;3680700;78;98984;-85